PWSweather.com
Personal Weather Stations
Station Observations
SUBOTICARS
SuboticaYU

SuboticaYU

Lat: 46.1296717, Lon: 19.641551

Elevation: 361

Station Type: Nexus

http://sumeteo.info

High Low Average
Temperature 27.5°F-2.5°C 8.7°F-12.9°C 22.6°F-5.2°C
Dew Point 23.7°F-4.6°C -1.0°F-18.3°C 16.0°F-8.9°C
Winds 9.2 mph 14.8 kmh Calm Calm 4.0 mph SSW6.4 kmh SSW
Wind Gusts 12.7 mph20.4 kmh -- 4.0 mph6.4 kmh
Humidity 87% 64% 76%
Pressure 29.99 in1015.6 mb 29.40 in995.6 mb -
Precipitation 0.11 in2.8 mm - -
Hour Temp Dew Point Humidity Winds Wind Gusts Pressure Precip Precip Rate Daily Precip Total
12:00 AM 8.7°F-12.9°C -1.0°F-18.3°C 64% Calm Calm -- 29.99 in1015.6 mb - 0.00 in0.0 mm 0.00 in0.0 mm
12:10 AM 8.8°F-12.9°C -0.9°F-18.3°C 64% Calm Calm -- 29.98 in1015.2 mb - 0.00 in0.0 mm 0.00 in0.0 mm
12:15 AM 8.8°F-12.9°C -0.9°F-18.3°C 64% Calm Calm -- 29.98 in1015.2 mb - 0.00 in0.0 mm 0.00 in0.0 mm
12:20 AM 9.1°F-12.7°C -0.6°F-18.1°C 64% Calm Calm -- 29.98 in1015.2 mb - 0.00 in0.0 mm 0.00 in0.0 mm
12:25 AM 9.6°F-12.4°C -0.1°F-17.8°C 64% Calm Calm -- 29.98 in1015.2 mb - 0.00 in0.0 mm 0.00 in0.0 mm
12:30 AM 9.4°F-12.6°C -0.3°F-17.9°C 64% Calm Calm -- 29.98 in1015.2 mb - 0.00 in0.0 mm 0.00 in0.0 mm
12:35 AM 9.5°F-12.5°C -0.2°F-17.9°C 64% Calm Calm -- 29.98 in1015.2 mb - 0.00 in0.0 mm 0.00 in0.0 mm
12:40 AM 9.5°F-12.5°C -0.2°F-17.9°C 64% Calm Calm -- 29.98 in1015.2 mb - 0.00 in0.0 mm 0.00 in0.0 mm
12:45 AM 9.7°F-12.4°C -0.1°F-17.8°C 64% Calm Calm -- 29.98 in1015.2 mb - 0.00 in0.0 mm 0.00 in0.0 mm
12:50 AM 10.4°F-12.0°C 0.6°F-17.4°C 64% Calm Calm -- 29.97 in1014.9 mb - 0.00 in0.0 mm 0.00 in0.0 mm
12:55 AM 10.2°F-12.1°C 0.4°F-17.6°C 64% 1.2 mph WSW1.9 kmh WSW 1.2 mph1.9 kmh 29.97 in1014.9 mb - 0.00 in0.0 mm 0.00 in0.0 mm
01:00 AM 10.4°F-12.0°C 0.6°F-17.4°C 64% 1.2 mph WSW1.9 kmh WSW -- 29.97 in1014.9 mb - 0.00 in0.0 mm 0.00 in0.0 mm
01:10 AM 10.8°F-11.8°C 1.0°F-17.2°C 64% Calm Calm -- 29.97 in1014.9 mb - 0.00 in0.0 mm 0.00 in0.0 mm
01:15 AM 10.8°F-11.8°C 1.0°F-17.2°C 64% Calm Calm -- 29.97 in1014.9 mb - 0.00 in0.0 mm 0.00 in0.0 mm
01:20 AM 11.1°F-11.6°C 1.3°F-17.1°C 64% Calm Calm -- 29.96 in1014.6 mb - 0.00 in0.0 mm 0.00 in0.0 mm
01:25 AM 11.1°F-11.6°C 1.3°F-17.1°C 64% Calm Calm -- 29.96 in1014.6 mb - 0.00 in0.0 mm 0.00 in0.0 mm
01:30 AM 11.7°F-11.3°C 1.8°F-16.8°C 64% Calm Calm -- 29.96 in1014.6 mb - 0.00 in0.0 mm 0.00 in0.0 mm
01:35 AM 12.0°F-11.1°C 2.2°F-16.6°C 64% Calm Calm -- 29.95 in1014.2 mb - 0.00 in0.0 mm 0.00 in0.0 mm
01:40 AM 11.8°F-11.2°C 2.0°F-16.7°C 64% 1.2 mph WSW1.9 kmh WSW 1.2 mph1.9 kmh 29.95 in1014.2 mb - 0.00 in0.0 mm 0.00 in0.0 mm
01:45 AM 12.7°F-10.7°C 2.8°F-16.2°C 64% Calm Calm -- 29.96 in1014.6 mb - 0.00 in0.0 mm 0.00 in0.0 mm
01:50 AM 12.9°F-10.6°C 3.0°F-16.1°C 64% Calm Calm -- 29.96 in1014.6 mb - 0.00 in0.0 mm 0.00 in0.0 mm
01:55 AM 12.7°F-10.7°C 2.8°F-16.2°C 64% 1.2 mph WSW1.9 kmh WSW 1.2 mph1.9 kmh 29.96 in1014.6 mb - 0.00 in0.0 mm 0.00 in0.0 mm
02:00 AM 13.0°F-10.6°C 3.1°F-16.1°C 64% 1.2 mph SW1.9 kmh SW 2.3 mph3.7 kmh 29.96 in1014.6 mb - 0.00 in0.0 mm 0.00 in0.0 mm
02:10 AM 13.5°F-10.3°C 3.5°F-15.8°C 64% 1.2 mph SSW1.9 kmh SSW 1.2 mph1.9 kmh 29.96 in1014.6 mb - 0.00 in0.0 mm 0.00 in0.0 mm
02:15 AM 14.2°F-9.9°C 7.1°F-13.8°C 73% 3.5 mph SSW5.6 kmh SSW 3.5 mph5.6 kmh 29.96 in1014.6 mb - 0.00 in0.0 mm 0.00 in0.0 mm
02:20 AM 14.9°F-9.5°C 8.1°F-13.3°C 74% 2.3 mph SSW3.7 kmh SSW 2.3 mph3.7 kmh 29.96 in1014.6 mb - 0.00 in0.0 mm 0.00 in0.0 mm
02:25 AM 15.3°F-9.3°C 8.5°F-13.1°C 74% 1.2 mph SSW1.9 kmh SSW 1.2 mph1.9 kmh 29.96 in1014.6 mb - 0.00 in0.0 mm 0.00 in0.0 mm
02:30 AM 15.3°F-9.3°C 8.5°F-13.1°C 74% 1.2 mph SSW1.9 kmh SSW 2.3 mph3.7 kmh 29.95 in1014.2 mb - 0.00 in0.0 mm 0.00 in0.0 mm
02:35 AM 15.8°F-9.0°C 9.0°F-12.8°C 74% 2.3 mph SSW3.7 kmh SSW 3.5 mph5.6 kmh 29.94 in1013.9 mb - 0.00 in0.0 mm 0.00 in0.0 mm
02:40 AM 16.0°F-8.9°C 9.2°F-12.7°C 74% 2.3 mph SSW3.7 kmh SSW 2.3 mph3.7 kmh 29.94 in1013.9 mb - 0.00 in0.0 mm 0.00 in0.0 mm
02:45 AM 16.3°F-8.7°C 9.5°F-12.5°C 74% 2.3 mph S3.7 kmh S 3.5 mph5.6 kmh 29.94 in1013.9 mb - 0.00 in0.0 mm 0.00 in0.0 mm
02:50 AM 16.5°F-8.6°C 9.4°F-12.6°C 73% 2.3 mph SSW3.7 kmh SSW 2.3 mph3.7 kmh 29.94 in1013.9 mb - 0.00 in0.0 mm 0.00 in0.0 mm
02:55 AM 16.8°F-8.4°C 9.6°F-12.4°C 73% 2.3 mph SSW3.7 kmh SSW 2.3 mph3.7 kmh 29.94 in1013.9 mb - 0.00 in0.0 mm 0.00 in0.0 mm
03:00 AM 17.1°F-8.3°C 9.9°F-12.3°C 73% 2.3 mph SSW3.7 kmh SSW 3.5 mph5.6 kmh 29.93 in1013.5 mb - 0.00 in0.0 mm 0.00 in0.0 mm
03:10 AM 17.2°F-8.2°C 10.1°F-12.2°C 73% 2.3 mph SSW3.7 kmh SSW 3.5 mph5.6 kmh 29.93 in1013.5 mb - 0.00 in0.0 mm 0.00 in0.0 mm
03:15 AM 17.4°F-8.1°C 9.9°F-12.3°C 72% 2.3 mph SSW3.7 kmh SSW 3.5 mph5.6 kmh 29.92 in1013.2 mb - 0.00 in0.0 mm 0.00 in0.0 mm
03:20 AM 17.6°F-8.0°C 10.1°F-12.2°C 72% 3.5 mph SSW5.6 kmh SSW 3.5 mph5.6 kmh 29.91 in1012.9 mb - 0.00 in0.0 mm 0.00 in0.0 mm
03:25 AM 17.6°F-8.0°C 10.1°F-12.2°C 72% 3.5 mph SSW5.6 kmh SSW 3.5 mph5.6 kmh 29.91 in1012.9 mb - 0.00 in0.0 mm 0.00 in0.0 mm
03:30 AM 17.6°F-8.0°C 10.1°F-12.2°C 72% 2.3 mph SSW3.7 kmh SSW 3.5 mph5.6 kmh 29.91 in1012.9 mb - 0.00 in0.0 mm 0.00 in0.0 mm
03:35 AM 17.8°F-7.9°C 10.3°F-12.1°C 72% 3.5 mph SSW5.6 kmh SSW 3.5 mph5.6 kmh 29.91 in1012.9 mb - 0.00 in0.0 mm 0.00 in0.0 mm
03:40 AM 18.3°F-7.6°C 10.8°F-11.8°C 72% 3.5 mph SSW5.6 kmh SSW 3.5 mph5.6 kmh 29.91 in1012.9 mb - 0.00 in0.0 mm 0.00 in0.0 mm
03:45 AM 18.5°F-7.5°C 11.0°F-11.7°C 72% 3.5 mph SW5.6 kmh SW 3.5 mph5.6 kmh 29.91 in1012.9 mb - 0.00 in0.0 mm 0.00 in0.0 mm
03:50 AM 18.7°F-7.4°C 11.1°F-11.6°C 72% 2.3 mph WSW3.7 kmh WSW 3.5 mph5.6 kmh 29.90 in1012.5 mb - 0.00 in0.0 mm 0.00 in0.0 mm
03:55 AM 18.7°F-7.4°C 11.1°F-11.6°C 72% 2.3 mph SW3.7 kmh SW 3.5 mph5.6 kmh 29.90 in1012.5 mb - 0.00 in0.0 mm 0.00 in0.0 mm
04:00 AM 18.5°F-7.5°C 10.7°F-11.8°C 71% 3.5 mph SW5.6 kmh SW 3.5 mph5.6 kmh 29.90 in1012.5 mb - 0.00 in0.0 mm 0.00 in0.0 mm
04:10 AM 18.1°F-7.7°C 10.3°F-12.1°C 71% 3.5 mph SSW5.6 kmh SSW 3.5 mph5.6 kmh 29.90 in1012.5 mb - 0.00 in0.0 mm 0.00 in0.0 mm
04:15 AM 18.0°F-7.8°C 10.1°F-12.2°C 71% 3.5 mph SSW5.6 kmh SSW 3.5 mph5.6 kmh 29.90 in1012.5 mb - 0.00 in0.0 mm 0.00 in0.0 mm
04:20 AM 18.0°F-7.8°C 10.1°F-12.2°C 71% 2.3 mph SSW3.7 kmh SSW 3.5 mph5.6 kmh 29.89 in1012.2 mb - 0.00 in0.0 mm 0.00 in0.0 mm
04:25 AM 18.0°F-7.8°C 10.1°F-12.2°C 71% 2.3 mph SSW3.7 kmh SSW 2.3 mph3.7 kmh 29.89 in1012.2 mb - 0.00 in0.0 mm 0.00 in0.0 mm
04:30 AM 17.8°F-7.9°C 9.6°F-12.4°C 70% 1.2 mph SSW1.9 kmh SSW 2.3 mph3.7 kmh 29.89 in1012.2 mb - 0.00 in0.0 mm 0.00 in0.0 mm
04:35 AM 17.6°F-8.0°C 9.5°F-12.5°C 70% 1.2 mph SSW1.9 kmh SSW 2.3 mph3.7 kmh 29.89 in1012.2 mb - 0.00 in0.0 mm 0.00 in0.0 mm
04:40 AM 17.6°F-8.0°C 9.5°F-12.5°C 70% 1.2 mph SSW1.9 kmh SSW 2.3 mph3.7 kmh 29.89 in1012.2 mb - 0.00 in0.0 mm 0.00 in0.0 mm
04:45 AM 17.4°F-8.1°C 9.3°F-12.6°C 70% 2.3 mph SSW3.7 kmh SSW 3.5 mph5.6 kmh 29.88 in1011.9 mb - 0.00 in0.0 mm 0.00 in0.0 mm
04:50 AM 17.2°F-8.2°C 9.1°F-12.7°C 70% 2.3 mph SSW3.7 kmh SSW 3.5 mph5.6 kmh 29.88 in1011.9 mb - 0.00 in0.0 mm 0.00 in0.0 mm
04:55 AM 17.4°F-8.1°C 9.6°F-12.4°C 71% 2.3 mph SW3.7 kmh SW 2.3 mph3.7 kmh 29.88 in1011.9 mb - 0.00 in0.0 mm 0.00 in0.0 mm
05:00 AM 17.6°F-8.0°C 9.8°F-12.3°C 71% 3.5 mph WSW5.6 kmh WSW 3.5 mph5.6 kmh 29.88 in1011.9 mb - 0.00 in0.0 mm 0.00 in0.0 mm
05:10 AM 17.8°F-7.9°C 10.3°F-12.1°C 72% 3.5 mph SSW5.6 kmh SSW 3.5 mph5.6 kmh 29.88 in1011.9 mb - 0.00 in0.0 mm 0.00 in0.0 mm
05:15 AM 17.8°F-7.9°C 10.3°F-12.1°C 72% 2.3 mph SW3.7 kmh SW 3.5 mph5.6 kmh 29.88 in1011.9 mb - 0.00 in0.0 mm 0.00 in0.0 mm
05:20 AM 17.9°F-7.8°C 10.4°F-12.0°C 72% 3.5 mph SW5.6 kmh SW 3.5 mph5.6 kmh 29.87 in1011.5 mb - 0.00 in0.0 mm 0.00 in0.0 mm
05:25 AM 18.0°F-7.8°C 10.8°F-11.8°C 73% 3.5 mph SSW5.6 kmh SSW 3.5 mph5.6 kmh 29.87 in1011.5 mb - 0.00 in0.0 mm 0.00 in0.0 mm
05:30 AM 18.0°F-7.8°C 10.5°F-11.9°C 72% 3.5 mph SSW5.6 kmh SSW 3.5 mph5.6 kmh 29.86 in1011.2 mb - 0.00 in0.0 mm 0.00 in0.0 mm
05:35 AM 18.0°F-7.8°C 10.5°F-11.9°C 72% 3.5 mph SSW5.6 kmh SSW 4.6 mph7.4 kmh 29.86 in1011.2 mb - 0.00 in0.0 mm 0.00 in0.0 mm
05:40 AM 18.0°F-7.8°C 10.8°F-11.8°C 73% 2.3 mph SSW3.7 kmh SSW 3.5 mph5.6 kmh 29.86 in1011.2 mb - 0.00 in0.0 mm 0.00 in0.0 mm
05:45 AM 18.0°F-7.8°C 10.8°F-11.8°C 73% 2.3 mph SSW3.7 kmh SSW 3.5 mph5.6 kmh 29.86 in1011.2 mb - 0.00 in0.0 mm 0.00 in0.0 mm
05:50 AM 18.1°F-7.7°C 10.9°F-11.7°C 73% 2.3 mph SW3.7 kmh SW 3.5 mph5.6 kmh 29.86 in1011.2 mb - 0.00 in0.0 mm 0.00 in0.0 mm
05:55 AM 18.1°F-7.7°C 10.9°F-11.7°C 73% 2.3 mph SW3.7 kmh SW 3.5 mph5.6 kmh 29.86 in1011.2 mb - 0.00 in0.0 mm 0.00 in0.0 mm
06:00 AM 18.1°F-7.7°C 10.9°F-11.7°C 73% 2.3 mph SW3.7 kmh SW 2.3 mph3.7 kmh 29.85 in1010.8 mb - 0.00 in0.0 mm 0.00 in0.0 mm
06:10 AM 18.3°F-7.6°C 11.1°F-11.6°C 73% 1.2 mph SSW1.9 kmh SSW 2.3 mph3.7 kmh 29.84 in1010.5 mb - 0.00 in0.0 mm 0.00 in0.0 mm
06:15 AM 18.3°F-7.6°C 11.1°F-11.6°C 73% 1.2 mph SSW1.9 kmh SSW 3.5 mph5.6 kmh 29.84 in1010.5 mb - 0.00 in0.0 mm 0.00 in0.0 mm
06:20 AM 18.3°F-7.6°C 11.1°F-11.6°C 73% 1.2 mph SSW1.9 kmh SSW 2.3 mph3.7 kmh 29.84 in1010.5 mb - 0.00 in0.0 mm 0.00 in0.0 mm
06:25 AM 18.4°F-7.6°C 11.2°F-11.6°C 73% 1.2 mph SSW1.9 kmh SSW 2.3 mph3.7 kmh 29.84 in1010.5 mb - 0.00 in0.0 mm 0.00 in0.0 mm
06:30 AM 18.5°F-7.5°C 11.3°F-11.5°C 73% 2.3 mph SSW3.7 kmh SSW 3.5 mph5.6 kmh 29.84 in1010.5 mb - 0.00 in0.0 mm 0.00 in0.0 mm
06:35 AM 18.5°F-7.5°C 11.3°F-11.5°C 73% 2.3 mph SSW3.7 kmh SSW 2.3 mph3.7 kmh 29.85 in1010.8 mb - 0.00 in0.0 mm 0.00 in0.0 mm
06:40 AM 18.7°F-7.4°C 11.5°F-11.4°C 73% 2.3 mph SSW3.7 kmh SSW 3.5 mph5.6 kmh 29.85 in1010.8 mb - 0.00 in0.0 mm 0.00 in0.0 mm
06:45 AM 18.7°F-7.4°C 11.5°F-11.4°C 73% 2.3 mph SSW3.7 kmh SSW 2.3 mph3.7 kmh 29.84 in1010.5 mb - 0.00 in0.0 mm 0.00 in0.0 mm
06:50 AM 18.9°F-7.3°C 11.6°F-11.3°C 73% 3.5 mph SSW5.6 kmh SSW 4.6 mph7.4 kmh 29.84 in1010.5 mb - 0.00 in0.0 mm 0.00 in0.0 mm
06:55 AM 18.9°F-7.3°C 11.7°F-11.3°C 73% 3.5 mph SW5.6 kmh SW 3.5 mph5.6 kmh 29.84 in1010.5 mb - 0.00 in0.0 mm 0.00 in0.0 mm
07:00 AM 19.0°F-7.2°C 12.1°F-11.1°C 74% 3.5 mph SSW5.6 kmh SSW 3.5 mph5.6 kmh 29.84 in1010.5 mb - 0.00 in0.0 mm 0.00 in0.0 mm
07:10 AM 19.2°F-7.1°C 12.3°F-10.9°C 74% 3.5 mph SSW5.6 kmh SSW 3.5 mph5.6 kmh 29.83 in1010.2 mb - 0.00 in0.0 mm 0.00 in0.0 mm
07:15 AM 19.2°F-7.1°C 12.3°F-10.9°C 74% 3.5 mph SSW5.6 kmh SSW 3.5 mph5.6 kmh 29.83 in1010.2 mb - 0.00 in0.0 mm 0.00 in0.0 mm
07:20 AM 19.4°F-7.0°C 12.5°F-10.8°C 74% 3.5 mph SSW5.6 kmh SSW 3.5 mph5.6 kmh 29.82 in1009.8 mb - 0.00 in0.0 mm 0.00 in0.0 mm
07:25 AM 19.5°F-6.9°C 12.5°F-10.8°C 74% 3.5 mph S5.6 kmh S 4.6 mph7.4 kmh 29.82 in1009.8 mb - 0.00 in0.0 mm 0.00 in0.0 mm
07:30 AM 19.6°F-6.9°C 12.6°F-10.8°C 74% 1.2 mph SSW1.9 kmh SSW 2.3 mph3.7 kmh 29.83 in1010.2 mb - 0.00 in0.0 mm 0.00 in0.0 mm
07:35 AM 19.8°F-6.8°C 12.8°F-10.7°C 74% 2.3 mph SSE3.7 kmh SSE 2.3 mph3.7 kmh 29.83 in1010.2 mb - 0.00 in0.0 mm 0.00 in0.0 mm
07:40 AM 19.8°F-6.8°C 12.8°F-10.7°C 74% 2.3 mph S3.7 kmh S 3.5 mph5.6 kmh 29.83 in1010.2 mb - 0.00 in0.0 mm 0.00 in0.0 mm
07:45 AM 19.9°F-6.7°C 13.0°F-10.6°C 74% 1.2 mph SSE1.9 kmh SSE 2.3 mph3.7 kmh 29.82 in1009.8 mb - 0.00 in0.0 mm 0.00 in0.0 mm
07:50 AM 20.0°F-6.7°C 13.1°F-10.5°C 74% 2.3 mph S3.7 kmh S 3.5 mph5.6 kmh 29.82 in1009.8 mb - 0.00 in0.0 mm 0.00 in0.0 mm
07:55 AM 20.1°F-6.6°C 13.5°F-10.3°C 75% 4.6 mph S7.4 kmh S 4.6 mph7.4 kmh 29.82 in1009.8 mb - 0.00 in0.0 mm 0.00 in0.0 mm
08:00 AM 20.3°F-6.5°C 13.6°F-10.2°C 75% 3.5 mph SSW5.6 kmh SSW 3.5 mph5.6 kmh 29.81 in1009.5 mb - 0.00 in0.0 mm 0.00 in0.0 mm
08:10 AM 20.5°F-6.4°C 13.8°F-10.1°C 75% 2.3 mph S3.7 kmh S 3.5 mph5.6 kmh 29.80 in1009.1 mb - 0.00 in0.0 mm 0.00 in0.0 mm
08:15 AM 20.7°F-6.3°C 14.0°F-10.0°C 75% 3.5 mph SSW5.6 kmh SSW 3.5 mph5.6 kmh 29.80 in1009.1 mb - 0.00 in0.0 mm 0.00 in0.0 mm
08:20 AM 20.8°F-6.2°C 14.2°F-9.9°C 75% 3.5 mph SSW5.6 kmh SSW 3.5 mph5.6 kmh 29.80 in1009.1 mb - 0.00 in0.0 mm 0.00 in0.0 mm
08:25 AM 21.0°F-6.1°C 14.3°F-9.8°C 75% 3.5 mph SSE5.6 kmh SSE 3.5 mph5.6 kmh 29.80 in1009.1 mb - 0.00 in0.0 mm 0.00 in0.0 mm
08:30 AM 21.2°F-6.0°C 14.8°F-9.6°C 76% 3.5 mph SSE5.6 kmh SSE 4.6 mph7.4 kmh 29.80 in1009.1 mb - 0.00 in0.0 mm 0.00 in0.0 mm
08:35 AM 21.4°F-5.9°C 14.7°F-9.6°C 75% 3.5 mph SE5.6 kmh SE 3.5 mph5.6 kmh 29.79 in1008.8 mb - 0.00 in0.0 mm 0.00 in0.0 mm
08:40 AM 21.6°F-5.8°C 14.9°F-9.5°C 75% 3.5 mph SSW5.6 kmh SSW 4.6 mph7.4 kmh 29.79 in1008.8 mb - 0.00 in0.0 mm 0.00 in0.0 mm
08:45 AM 21.9°F-5.6°C 15.2°F-9.3°C 75% 3.5 mph SE5.6 kmh SE 3.5 mph5.6 kmh 29.79 in1008.8 mb - 0.00 in0.0 mm 0.00 in0.0 mm
08:50 AM 22.1°F-5.5°C 15.7°F-9.1°C 76% 2.3 mph S3.7 kmh S 3.5 mph5.6 kmh 29.78 in1008.5 mb - 0.00 in0.0 mm 0.00 in0.0 mm
08:55 AM 22.3°F-5.4°C 15.9°F-8.9°C 76% 3.5 mph S5.6 kmh S 4.6 mph7.4 kmh 29.78 in1008.5 mb - 0.00 in0.0 mm 0.00 in0.0 mm
09:00 AM 22.5°F-5.3°C 16.0°F-8.9°C 76% 2.3 mph S3.7 kmh S 2.3 mph3.7 kmh 29.78 in1008.5 mb - 0.00 in0.0 mm 0.00 in0.0 mm
09:10 AM 22.8°F-5.1°C 16.4°F-8.7°C 76% 4.6 mph SSW7.4 kmh SSW 6.9 mph11.1 kmh 29.77 in1008.1 mb - 0.00 in0.0 mm 0.00 in0.0 mm
09:15 AM 22.8°F-5.1°C 16.1°F-8.8°C 75% 3.5 mph S5.6 kmh S 4.6 mph7.4 kmh 29.77 in1008.1 mb - 0.00 in0.0 mm 0.00 in0.0 mm
09:20 AM 23.1°F-4.9°C 16.3°F-8.7°C 75% 4.6 mph SSW7.4 kmh SSW 4.6 mph7.4 kmh 29.77 in1008.1 mb - 0.00 in0.0 mm 0.00 in0.0 mm
09:25 AM 23.4°F-4.8°C 16.6°F-8.6°C 75% 3.5 mph S5.6 kmh S 5.8 mph9.3 kmh 29.77 in1008.1 mb - 0.00 in0.0 mm 0.00 in0.0 mm
09:30 AM 23.5°F-4.7°C 16.8°F-8.4°C 75% 3.5 mph S5.6 kmh S 3.5 mph5.6 kmh 29.76 in1007.8 mb - 0.00 in0.0 mm 0.00 in0.0 mm
09:35 AM 23.7°F-4.6°C 17.0°F-8.3°C 75% 4.6 mph SSE7.4 kmh SSE 6.9 mph11.1 kmh 29.76 in1007.8 mb - 0.00 in0.0 mm 0.00 in0.0 mm
09:40 AM 24.1°F-4.4°C 17.3°F-8.2°C 75% 2.3 mph SSE3.7 kmh SSE 4.6 mph7.4 kmh 29.76 in1007.8 mb - 0.00 in0.0 mm 0.00 in0.0 mm
09:45 AM 24.2°F-4.3°C 17.1°F-8.3°C 74% 3.5 mph S5.6 kmh S 2.3 mph3.7 kmh 29.75 in1007.5 mb - 0.00 in0.0 mm 0.00 in0.0 mm
09:50 AM 24.5°F-4.2°C 17.4°F-8.1°C 74% 4.6 mph SSW7.4 kmh SSW 5.8 mph9.3 kmh 29.75 in1007.5 mb - 0.00 in0.0 mm 0.00 in0.0 mm
09:55 AM 24.6°F-4.1°C 17.5°F-8.1°C 74% 2.3 mph S3.7 kmh S 2.3 mph3.7 kmh 29.75 in1007.5 mb - 0.00 in0.0 mm 0.00 in0.0 mm
10:00 AM 24.8°F-4.0°C 17.7°F-7.9°C 74% 5.8 mph SSW9.3 kmh SSW 5.8 mph9.3 kmh 29.74 in1007.1 mb - 0.00 in0.0 mm 0.00 in0.0 mm
10:10 AM 25.2°F-3.8°C 18.0°F-7.8°C 74% 3.5 mph SSW5.6 kmh SSW 3.5 mph5.6 kmh 29.74 in1007.1 mb - 0.00 in0.0 mm 0.00 in0.0 mm
10:15 AM 25.2°F-3.8°C 17.7°F-7.9°C 73% 5.8 mph S9.3 kmh S 8.1 mph13.0 kmh 29.74 in1007.1 mb - 0.00 in0.0 mm 0.00 in0.0 mm
10:20 AM 25.2°F-3.8°C 18.0°F-7.8°C 74% 6.9 mph S11.1 kmh S 8.1 mph13.0 kmh 29.73 in1006.8 mb - 0.00 in0.0 mm 0.00 in0.0 mm
10:25 AM 25.2°F-3.8°C 17.7°F-7.9°C 73% 3.5 mph SSW5.6 kmh SSW 5.8 mph9.3 kmh 29.73 in1006.8 mb - 0.00 in0.0 mm 0.00 in0.0 mm
10:30 AM 24.8°F-4.0°C 17.4°F-8.1°C 73% 5.8 mph SSW9.3 kmh SSW 5.8 mph9.3 kmh 29.73 in1006.8 mb - 0.00 in0.0 mm 0.00 in0.0 mm
10:35 AM 25.0°F-3.9°C 17.5°F-8.1°C 73% 3.5 mph SSW5.6 kmh SSW 6.9 mph11.1 kmh 29.73 in1006.8 mb - 0.00 in0.0 mm 0.00 in0.0 mm
10:40 AM 24.8°F-4.0°C 17.7°F-7.9°C 74% 5.8 mph S9.3 kmh S 6.9 mph11.1 kmh 29.73 in1006.8 mb - 0.00 in0.0 mm 0.00 in0.0 mm
10:45 AM 24.8°F-4.0°C 17.7°F-7.9°C 74% 5.8 mph SSW9.3 kmh SSW 5.8 mph9.3 kmh 29.73 in1006.8 mb - 0.00 in0.0 mm 0.00 in0.0 mm
10:50 AM 25.0°F-3.9°C 17.9°F-7.8°C 74% 5.8 mph SSW9.3 kmh SSW 5.8 mph9.3 kmh 29.73 in1006.8 mb - 0.00 in0.0 mm 0.00 in0.0 mm
10:55 AM 25.2°F-3.8°C 18.0°F-7.8°C 74% 3.5 mph S5.6 kmh S 4.6 mph7.4 kmh 29.73 in1006.8 mb - 0.00 in0.0 mm 0.00 in0.0 mm
11:00 AM 25.5°F-3.6°C 18.4°F-7.6°C 74% 4.6 mph SSW7.4 kmh SSW 6.9 mph11.1 kmh 29.73 in1006.8 mb - 0.00 in0.0 mm 0.00 in0.0 mm
11:10 AM 25.7°F-3.5°C 18.5°F-7.5°C 74% 4.6 mph SSW7.4 kmh SSW 4.6 mph7.4 kmh 29.72 in1006.4 mb - 0.00 in0.0 mm 0.00 in0.0 mm
11:15 AM 26.1°F-3.3°C 18.9°F-7.3°C 74% 5.8 mph SSW9.3 kmh SSW 8.1 mph13.0 kmh 29.71 in1006.1 mb - 0.00 in0.0 mm 0.00 in0.0 mm
11:20 AM 26.1°F-3.3°C 19.0°F-7.2°C 74% 4.6 mph SSW7.4 kmh SSW 9.2 mph14.8 kmh 29.70 in1005.8 mb - 0.00 in0.0 mm 0.00 in0.0 mm
11:25 AM 26.1°F-3.3°C 18.9°F-7.3°C 74% 9.2 mph SSW14.8 kmh SSW 9.2 mph14.8 kmh 29.70 in1005.8 mb - 0.00 in0.0 mm 0.00 in0.0 mm
11:30 AM 26.4°F-3.1°C 19.3°F-7.1°C 74% 4.6 mph SSW7.4 kmh SSW 4.6 mph7.4 kmh 29.70 in1005.8 mb - 0.00 in0.0 mm 0.00 in0.0 mm
11:35 AM 26.6°F-3.0°C 19.4°F-7.0°C 74% 5.8 mph S9.3 kmh S 8.1 mph13.0 kmh 29.68 in1005.1 mb - 0.00 in0.0 mm 0.00 in0.0 mm
11:40 AM 26.8°F-2.9°C 19.6°F-6.9°C 74% 4.6 mph SSW7.4 kmh SSW 4.6 mph7.4 kmh 29.68 in1005.1 mb - 0.00 in0.0 mm 0.00 in0.0 mm
11:45 AM 27.0°F-2.8°C 19.5°F-6.9°C 73% 6.9 mph SSW11.1 kmh SSW 8.1 mph13.0 kmh 29.68 in1005.1 mb - 0.00 in0.0 mm 0.00 in0.0 mm
11:50 AM 26.8°F-2.9°C 19.3°F-7.1°C 73% 5.8 mph SSW9.3 kmh SSW 8.1 mph13.0 kmh 29.67 in1004.7 mb - 0.00 in0.0 mm 0.00 in0.0 mm
11:55 AM 27.0°F-2.8°C 19.5°F-6.9°C 73% 4.6 mph SSW7.4 kmh SSW 5.8 mph9.3 kmh 29.67 in1004.7 mb - 0.00 in0.0 mm 0.00 in0.0 mm
12:00 PM 26.8°F-2.9°C 19.3°F-7.1°C 73% 5.8 mph SSW9.3 kmh SSW 8.1 mph13.0 kmh 29.66 in1004.4 mb - 0.00 in0.0 mm 0.00 in0.0 mm
12:10 PM 27.0°F-2.8°C 19.5°F-6.9°C 73% 6.9 mph S11.1 kmh S 10.4 mph16.7 kmh 29.65 in1004.1 mb - 0.00 in0.0 mm 0.00 in0.0 mm
12:15 PM 27.0°F-2.8°C 19.5°F-6.9°C 73% 6.9 mph SSW11.1 kmh SSW 5.8 mph9.3 kmh 29.65 in1004.1 mb - 0.00 in0.0 mm 0.00 in0.0 mm
12:20 PM 27.0°F-2.8°C 19.5°F-6.9°C 73% 5.8 mph S9.3 kmh S 5.8 mph9.3 kmh 29.64 in1003.7 mb - 0.00 in0.0 mm 0.00 in0.0 mm
12:25 PM 27.1°F-2.7°C 19.6°F-6.9°C 73% 5.8 mph SSW9.3 kmh SSW 5.8 mph9.3 kmh 29.64 in1003.7 mb - 0.00 in0.0 mm 0.00 in0.0 mm
12:30 PM 27.1°F-2.7°C 19.3°F-7.1°C 72% 6.9 mph SSW11.1 kmh SSW 4.6 mph7.4 kmh 29.64 in1003.7 mb - 0.00 in0.0 mm 0.00 in0.0 mm
12:35 PM 27.1°F-2.7°C 19.3°F-7.1°C 72% 6.9 mph SE11.1 kmh SE 9.2 mph14.8 kmh 29.63 in1003.4 mb - 0.00 in0.0 mm 0.00 in0.0 mm
12:40 PM 27.5°F-2.5°C 19.6°F-6.9°C 72% 5.8 mph ESE9.3 kmh ESE 6.9 mph11.1 kmh 29.63 in1003.4 mb - 0.00 in0.0 mm 0.00 in0.0 mm
12:45 PM 27.3°F-2.6°C 19.5°F-6.9°C 72% 6.9 mph S11.1 kmh S 9.2 mph14.8 kmh 29.63 in1003.4 mb - 0.00 in0.0 mm 0.00 in0.0 mm
12:50 PM 27.3°F-2.6°C 19.5°F-6.9°C 72% 6.9 mph SSW11.1 kmh SSW 10.4 mph16.7 kmh 29.63 in1003.4 mb - 0.00 in0.0 mm 0.00 in0.0 mm
12:55 PM 27.5°F-2.5°C 19.7°F-6.8°C 72% 4.6 mph SSW7.4 kmh SSW 9.2 mph14.8 kmh 29.63 in1003.4 mb - 0.00 in0.0 mm 0.00 in0.0 mm
01:00 PM 27.5°F-2.5°C 19.3°F-7.1°C 71% 5.8 mph S9.3 kmh S 9.2 mph14.8 kmh 29.62 in1003.0 mb - 0.00 in0.0 mm 0.00 in0.0 mm
01:10 PM 27.5°F-2.5°C 19.3°F-7.1°C 71% 4.6 mph SE7.4 kmh SE 5.8 mph9.3 kmh 29.60 in1002.4 mb - 0.00 in0.0 mm 0.00 in0.0 mm
01:15 PM 27.3°F-2.6°C 19.2°F-7.1°C 71% 6.9 mph SSE11.1 kmh SSE 8.1 mph13.0 kmh 29.60 in1002.4 mb - 0.00 in0.0 mm 0.00 in0.0 mm
01:20 PM 27.4°F-2.6°C 19.2°F-7.1°C 71% 5.8 mph SSW9.3 kmh SSW 5.8 mph9.3 kmh 29.59 in1002.0 mb - 0.00 in0.0 mm 0.00 in0.0 mm
01:25 PM 27.5°F-2.5°C 19.3°F-7.1°C 71% 5.8 mph S9.3 kmh S 12.7 mph20.4 kmh 29.59 in1002.0 mb - 0.00 in0.0 mm 0.00 in0.0 mm
01:30 PM 27.5°F-2.5°C 19.0°F-7.2°C 70% 6.9 mph S11.1 kmh S 10.4 mph16.7 kmh 29.59 in1002.0 mb - 0.00 in0.0 mm 0.00 in0.0 mm
01:35 PM 27.5°F-2.5°C 19.0°F-7.2°C 70% 4.6 mph SSW7.4 kmh SSW 4.6 mph7.4 kmh 29.59 in1002.0 mb - 0.00 in0.0 mm 0.00 in0.0 mm
01:40 PM 27.5°F-2.5°C 19.0°F-7.2°C 70% 5.8 mph SSW9.3 kmh SSW 4.6 mph7.4 kmh 29.59 in1002.0 mb - 0.00 in0.0 mm 0.00 in0.0 mm
01:45 PM 27.5°F-2.5°C 19.0°F-7.2°C 70% 5.8 mph SSE9.3 kmh SSE 5.8 mph9.3 kmh 29.59 in1002.0 mb - 0.00 in0.0 mm 0.00 in0.0 mm
01:50 PM 27.5°F-2.5°C 19.0°F-7.2°C 70% 4.6 mph SSE7.4 kmh SSE 4.6 mph7.4 kmh 29.59 in1002.0 mb - 0.00 in0.0 mm 0.00 in0.0 mm
01:55 PM 27.5°F-2.5°C 19.0°F-7.2°C 70% 4.6 mph S7.4 kmh S 5.8 mph9.3 kmh 29.59 in1002.0 mb - 0.00 in0.0 mm 0.00 in0.0 mm
02:00 PM 27.5°F-2.5°C 19.0°F-7.2°C 70% 3.5 mph SSE5.6 kmh SSE 5.8 mph9.3 kmh 29.59 in1002.0 mb - 0.00 in0.0 mm 0.00 in0.0 mm
02:10 PM 27.4°F-2.6°C 19.3°F-7.1°C 71% 4.6 mph S7.4 kmh S 5.8 mph9.3 kmh 29.59 in1002.0 mb - 0.00 in0.0 mm 0.00 in0.0 mm
02:15 PM 27.4°F-2.6°C 19.3°F-7.1°C 71% 4.6 mph S7.4 kmh S 5.8 mph9.3 kmh 29.59 in1002.0 mb - 0.00 in0.0 mm 0.00 in0.0 mm
02:20 PM 27.1°F-2.7°C 19.0°F-7.2°C 71% 5.8 mph SSE9.3 kmh SSE 6.9 mph11.1 kmh 29.58 in1001.7 mb - 0.00 in0.0 mm 0.00 in0.0 mm
02:25 PM 27.1°F-2.7°C 19.3°F-7.1°C 72% 3.5 mph SSW5.6 kmh SSW 5.8 mph9.3 kmh 29.58 in1001.7 mb - 0.00 in0.0 mm 0.00 in0.0 mm
02:30 PM 27.0°F-2.8°C 19.1°F-7.2°C 72% 3.5 mph S5.6 kmh S 4.6 mph7.4 kmh 29.58 in1001.7 mb - 0.00 in0.0 mm 0.00 in0.0 mm
02:35 PM 27.0°F-2.8°C 19.5°F-6.9°C 73% 5.8 mph SE9.3 kmh SE 4.6 mph7.4 kmh 29.57 in1001.4 mb - 0.00 in0.0 mm 0.00 in0.0 mm
02:45 PM 26.7°F-2.9°C 19.5°F-6.9°C 74% 4.6 mph S7.4 kmh S 8.1 mph13.0 kmh 29.57 in1001.4 mb - 0.00 in0.0 mm 0.00 in0.0 mm
02:50 PM 26.6°F-3.0°C 19.4°F-7.0°C 74% 5.8 mph S9.3 kmh S 8.1 mph13.0 kmh 29.57 in1001.4 mb - 0.00 in0.0 mm 0.00 in0.0 mm
02:55 PM 26.4°F-3.1°C 19.3°F-7.1°C 74% 4.6 mph S7.4 kmh S 8.1 mph13.0 kmh 29.57 in1001.4 mb - 0.02 in0.5 mm 0.02 in0.5 mm
03:00 PM 26.4°F-3.1°C 19.3°F-7.1°C 74% 3.5 mph SSW5.6 kmh SSW 4.6 mph7.4 kmh 29.57 in1001.4 mb - 0.02 in0.5 mm 0.02 in0.5 mm
03:10 PM 26.2°F-3.2°C 19.4°F-7.0°C 75% 5.8 mph SSW9.3 kmh SSW 4.6 mph7.4 kmh 29.57 in1001.4 mb - 0.02 in0.5 mm 0.02 in0.5 mm
03:15 PM 26.2°F-3.2°C 19.4°F-7.0°C 75% 3.5 mph SSW5.6 kmh SSW 3.5 mph5.6 kmh 29.56 in1001.0 mb - 0.02 in0.5 mm 0.02 in0.5 mm
03:20 PM 26.1°F-3.3°C 19.5°F-6.9°C 76% 4.6 mph S7.4 kmh S 5.8 mph9.3 kmh 29.56 in1001.0 mb - 0.02 in0.5 mm 0.02 in0.5 mm
03:25 PM 26.1°F-3.3°C 19.5°F-6.9°C 76% 4.6 mph S7.4 kmh S 8.1 mph13.0 kmh 29.56 in1001.0 mb - 0.02 in0.5 mm 0.02 in0.5 mm
03:30 PM 26.1°F-3.3°C 19.5°F-6.9°C 76% 5.8 mph SSW9.3 kmh SSW 9.2 mph14.8 kmh 29.55 in1000.7 mb - 0.02 in0.5 mm 0.02 in0.5 mm
03:35 PM 25.9°F-3.4°C 19.4°F-7.0°C 76% 6.9 mph S11.1 kmh S 8.1 mph13.0 kmh 29.55 in1000.7 mb - 0.02 in0.5 mm 0.02 in0.5 mm
03:40 PM 25.8°F-3.4°C 19.2°F-7.1°C 76% 5.8 mph S9.3 kmh S 6.9 mph11.1 kmh 29.55 in1000.7 mb - 0.02 in0.5 mm 0.02 in0.5 mm
03:45 PM 25.7°F-3.5°C 19.2°F-7.1°C 76% 6.9 mph S11.1 kmh S 6.9 mph11.1 kmh 29.55 in1000.7 mb - 0.02 in0.5 mm 0.02 in0.5 mm
03:50 PM 25.7°F-3.5°C 19.2°F-7.1°C 76% 4.6 mph SSW7.4 kmh SSW 8.1 mph13.0 kmh 29.55 in1000.7 mb - 0.03 in0.8 mm 0.03 in0.8 mm
03:55 PM 25.7°F-3.5°C 19.8°F-6.8°C 78% 6.9 mph SSW11.1 kmh SSW 6.9 mph11.1 kmh 29.55 in1000.7 mb - 0.01 in0.3 mm 0.03 in0.8 mm
04:00 PM 25.7°F-3.5°C 19.8°F-6.8°C 78% 6.9 mph SSW11.1 kmh SSW 5.8 mph9.3 kmh 29.54 in1000.3 mb - 0.01 in0.3 mm 0.03 in0.8 mm
04:10 PM 25.6°F-3.6°C 19.7°F-6.8°C 78% 4.6 mph SSE7.4 kmh SSE 6.9 mph11.1 kmh 29.54 in1000.3 mb - 0.03 in0.8 mm 0.05 in1.3 mm
04:15 PM 25.5°F-3.6°C 19.9°F-6.7°C 79% 5.8 mph SSW9.3 kmh SSW 9.2 mph14.8 kmh 29.53 in1000.0 mb - 0.03 in0.8 mm 0.05 in1.3 mm
04:20 PM 25.5°F-3.6°C 19.9°F-6.7°C 79% 4.6 mph S7.4 kmh S 3.5 mph5.6 kmh 29.53 in1000.0 mb - 0.03 in0.8 mm 0.05 in1.3 mm
04:25 PM 25.5°F-3.6°C 19.9°F-6.7°C 79% 6.9 mph S11.1 kmh S 11.5 mph18.5 kmh 29.53 in1000.0 mb - 0.03 in0.8 mm 0.05 in1.3 mm
04:30 PM 25.5°F-3.6°C 19.9°F-6.7°C 79% 4.6 mph SE7.4 kmh SE 3.5 mph5.6 kmh 29.53 in1000.0 mb - 0.04 in1.0 mm 0.06 in1.5 mm
04:35 PM 25.7°F-3.5°C 20.1°F-6.6°C 79% 4.6 mph S7.4 kmh S 6.9 mph11.1 kmh 29.53 in1000.0 mb - 0.04 in1.0 mm 0.06 in1.5 mm
04:40 PM 25.7°F-3.5°C 20.4°F-6.4°C 80% 4.6 mph SSW7.4 kmh SSW 4.6 mph7.4 kmh 29.53 in1000.0 mb - 0.04 in1.0 mm 0.06 in1.5 mm
04:45 PM 25.7°F-3.5°C 20.4°F-6.4°C 80% 4.6 mph S7.4 kmh S 5.8 mph9.3 kmh 29.53 in1000.0 mb - 0.06 in1.5 mm 0.08 in2.0 mm
04:50 PM 25.7°F-3.5°C 20.4°F-6.4°C 80% 5.8 mph SSE9.3 kmh SSE 5.8 mph9.3 kmh 29.53 in1000.0 mb - 0.06 in1.5 mm 0.08 in2.0 mm
04:55 PM 25.7°F-3.5°C 20.4°F-6.4°C 80% 5.8 mph S9.3 kmh S 9.2 mph14.8 kmh 29.53 in1000.0 mb - 0.05 in1.3 mm 0.08 in2.0 mm
05:00 PM 25.7°F-3.5°C 20.4°F-6.4°C 80% 4.6 mph S7.4 kmh S 4.6 mph7.4 kmh 29.52 in999.7 mb - 0.05 in1.3 mm 0.08 in2.0 mm
05:10 PM 25.8°F-3.4°C 20.5°F-6.4°C 80% 6.9 mph SSW11.1 kmh SSW 9.2 mph14.8 kmh 29.52 in999.7 mb - 0.06 in1.5 mm 0.09 in2.3 mm
05:15 PM 25.9°F-3.4°C 20.6°F-6.3°C 80% 3.5 mph SW5.6 kmh SW 3.5 mph5.6 kmh 29.51 in999.3 mb - 0.04 in1.0 mm 0.09 in2.3 mm
05:20 PM 26.1°F-3.3°C 21.0°F-6.1°C 81% 3.5 mph SSW5.6 kmh SSW 3.5 mph5.6 kmh 29.51 in999.3 mb - 0.04 in1.0 mm 0.09 in2.3 mm
05:25 PM 26.1°F-3.3°C 21.0°F-6.1°C 81% 4.6 mph SSW7.4 kmh SSW 5.8 mph9.3 kmh 29.51 in999.3 mb - 0.04 in1.0 mm 0.09 in2.3 mm
05:30 PM 26.1°F-3.3°C 21.0°F-6.1°C 81% 3.5 mph SSW5.6 kmh SSW 3.5 mph5.6 kmh 29.51 in999.3 mb - 0.03 in0.8 mm 0.09 in2.3 mm
05:35 PM 26.1°F-3.3°C 21.0°F-6.1°C 81% 3.5 mph SSW5.6 kmh SSW 4.6 mph7.4 kmh 29.51 in999.3 mb - 0.03 in0.8 mm 0.09 in2.3 mm
05:40 PM 26.2°F-3.2°C 21.2°F-6.0°C 81% 4.6 mph S7.4 kmh S 5.8 mph9.3 kmh 29.51 in999.3 mb - 0.03 in0.8 mm 0.09 in2.3 mm
05:45 PM 26.2°F-3.2°C 21.2°F-6.0°C 81% 3.5 mph S5.6 kmh S 3.5 mph5.6 kmh 29.51 in999.3 mb - 0.03 in0.8 mm 0.09 in2.3 mm
05:50 PM 26.2°F-3.2°C 21.2°F-6.0°C 81% 2.3 mph SSE3.7 kmh SSE 3.5 mph5.6 kmh 29.51 in999.3 mb - 0.01 in0.3 mm 0.09 in2.3 mm
05:55 PM 26.2°F-3.2°C 21.2°F-6.0°C 81% 3.5 mph S5.6 kmh S 3.5 mph5.6 kmh 29.51 in999.3 mb - 0.01 in0.3 mm 0.09 in2.3 mm
06:00 PM 26.2°F-3.2°C 21.2°F-6.0°C 81% 3.5 mph SSW5.6 kmh SSW 4.6 mph7.4 kmh 29.51 in999.3 mb - 0.01 in0.3 mm 0.09 in2.3 mm
06:10 PM 26.3°F-3.2°C 21.3°F-5.9°C 81% 4.6 mph SSW7.4 kmh SSW 5.8 mph9.3 kmh 29.51 in999.3 mb - 0.00 in0.0 mm 0.09 in2.3 mm
06:15 PM 26.4°F-3.1°C 21.4°F-5.9°C 81% 3.5 mph S5.6 kmh S 3.5 mph5.6 kmh 29.50 in999.0 mb - 0.02 in0.5 mm 0.11 in2.8 mm
06:20 PM 26.2°F-3.2°C 21.2°F-6.0°C 81% 3.5 mph SSW5.6 kmh SSW 4.6 mph7.4 kmh 29.50 in999.0 mb - 0.02 in0.5 mm 0.11 in2.8 mm
06:25 PM 26.2°F-3.2°C 21.2°F-6.0°C 81% 3.5 mph SSW5.6 kmh SSW 3.5 mph5.6 kmh 29.50 in999.0 mb - 0.02 in0.5 mm 0.11 in2.8 mm
06:30 PM 26.2°F-3.2°C 21.2°F-6.0°C 81% 2.3 mph SSW3.7 kmh SSW 4.6 mph7.4 kmh 29.50 in999.0 mb - 0.02 in0.5 mm 0.11 in2.8 mm
06:35 PM 26.2°F-3.2°C 21.2°F-6.0°C 81% 3.5 mph SSW5.6 kmh SSW 3.5 mph5.6 kmh 29.50 in999.0 mb - 0.02 in0.5 mm 0.11 in2.8 mm
06:40 PM 26.3°F-3.2°C 21.3°F-5.9°C 81% 3.5 mph SSW5.6 kmh SSW 5.8 mph9.3 kmh 29.50 in999.0 mb - 0.02 in0.5 mm 0.11 in2.8 mm
06:45 PM 26.4°F-3.1°C 21.7°F-5.7°C 82% 3.5 mph SSW5.6 kmh SSW 5.8 mph9.3 kmh 29.50 in999.0 mb - 0.02 in0.5 mm 0.11 in2.8 mm
06:50 PM 26.4°F-3.1°C 21.7°F-5.7°C 82% 4.6 mph SSW7.4 kmh SSW 4.6 mph7.4 kmh 29.50 in999.0 mb - 0.02 in0.5 mm 0.11 in2.8 mm
06:55 PM 26.4°F-3.1°C 21.7°F-5.7°C 82% 3.5 mph SSW5.6 kmh SSW 5.8 mph9.3 kmh 29.50 in999.0 mb - 0.02 in0.5 mm 0.11 in2.8 mm
07:00 PM 26.6°F-3.0°C 21.8°F-5.7°C 82% 3.5 mph SSW5.6 kmh SSW 4.6 mph7.4 kmh 29.50 in999.0 mb - 0.02 in0.5 mm 0.11 in2.8 mm
07:10 PM 26.6°F-3.0°C 21.8°F-5.7°C 82% 4.6 mph SSW7.4 kmh SSW 5.8 mph9.3 kmh 29.50 in999.0 mb - 0.02 in0.5 mm 0.11 in2.8 mm
07:15 PM 26.6°F-3.0°C 21.8°F-5.7°C 82% 3.5 mph SSW5.6 kmh SSW 4.6 mph7.4 kmh 29.49 in998.6 mb - 0.00 in0.0 mm 0.11 in2.8 mm
07:20 PM 26.8°F-2.9°C 22.3°F-5.4°C 83% 3.5 mph SSW5.6 kmh SSW 3.5 mph5.6 kmh 29.48 in998.3 mb - 0.00 in0.0 mm 0.11 in2.8 mm
07:25 PM 26.8°F-2.9°C 22.3°F-5.4°C 83% 3.5 mph WSW5.6 kmh WSW 3.5 mph5.6 kmh 29.48 in998.3 mb - 0.00 in0.0 mm 0.11 in2.8 mm
07:30 PM 26.8°F-2.9°C 22.3°F-5.4°C 83% 3.5 mph SSW5.6 kmh SSW 4.6 mph7.4 kmh 29.48 in998.3 mb - 0.00 in0.0 mm 0.11 in2.8 mm
07:35 PM 26.8°F-2.9°C 22.6°F-5.2°C 84% 3.5 mph SSW5.6 kmh SSW 4.6 mph7.4 kmh 29.48 in998.3 mb - 0.00 in0.0 mm 0.11 in2.8 mm
07:40 PM 26.8°F-2.9°C 22.6°F-5.2°C 84% 4.6 mph SSW7.4 kmh SSW 4.6 mph7.4 kmh 29.48 in998.3 mb - 0.00 in0.0 mm 0.11 in2.8 mm
07:45 PM 26.8°F-2.9°C 22.6°F-5.2°C 84% 3.5 mph SSW5.6 kmh SSW 3.5 mph5.6 kmh 29.48 in998.3 mb - 0.00 in0.0 mm 0.11 in2.8 mm
07:50 PM 26.4°F-3.1°C 22.2°F-5.4°C 84% 3.5 mph SW5.6 kmh SW 3.5 mph5.6 kmh 29.48 in998.3 mb - 0.00 in0.0 mm 0.11 in2.8 mm
07:55 PM 26.4°F-3.1°C 22.2°F-5.4°C 84% 2.3 mph SW3.7 kmh SW 3.5 mph5.6 kmh 29.48 in998.3 mb - 0.00 in0.0 mm 0.11 in2.8 mm
08:00 PM 26.2°F-3.2°C 22.1°F-5.5°C 84% 2.3 mph WSW3.7 kmh WSW 3.5 mph5.6 kmh 29.48 in998.3 mb - 0.00 in0.0 mm 0.11 in2.8 mm
08:10 PM 26.3°F-3.2°C 22.1°F-5.5°C 84% 3.5 mph WSW5.6 kmh WSW 4.6 mph7.4 kmh 29.48 in998.3 mb - 0.00 in0.0 mm 0.11 in2.8 mm
08:15 PM 26.6°F-3.0°C 23.0°F-5.0°C 86% 4.6 mph SW7.4 kmh SW 5.8 mph9.3 kmh 29.48 in998.3 mb - 0.00 in0.0 mm 0.11 in2.8 mm
08:20 PM 26.8°F-2.9°C 23.4°F-4.8°C 87% 5.8 mph SW9.3 kmh SW 6.9 mph11.1 kmh 29.47 in998.0 mb - 0.00 in0.0 mm 0.11 in2.8 mm
08:25 PM 26.8°F-2.9°C 23.4°F-4.8°C 87% 4.6 mph WSW7.4 kmh WSW 5.8 mph9.3 kmh 29.47 in998.0 mb - 0.00 in0.0 mm 0.11 in2.8 mm
08:30 PM 27.0°F-2.8°C 23.6°F-4.7°C 87% 4.6 mph SW7.4 kmh SW 5.8 mph9.3 kmh 29.47 in998.0 mb - 0.00 in0.0 mm 0.11 in2.8 mm
08:35 PM 27.0°F-2.8°C 23.6°F-4.7°C 87% 3.5 mph WSW5.6 kmh WSW 3.5 mph5.6 kmh 29.46 in997.6 mb - 0.00 in0.0 mm 0.11 in2.8 mm
08:40 PM 27.0°F-2.8°C 23.6°F-4.7°C 87% 3.5 mph S5.6 kmh S 3.5 mph5.6 kmh 29.46 in997.6 mb - 0.00 in0.0 mm 0.11 in2.8 mm
08:45 PM 27.0°F-2.8°C 23.3°F-4.8°C 86% 3.5 mph SSW5.6 kmh SSW 6.9 mph11.1 kmh 29.47 in998.0 mb - 0.00 in0.0 mm 0.11 in2.8 mm
08:50 PM 27.0°F-2.8°C 23.3°F-4.8°C 86% 3.5 mph WSW5.6 kmh WSW 5.8 mph9.3 kmh 29.47 in998.0 mb - 0.00 in0.0 mm 0.11 in2.8 mm
08:55 PM 27.1°F-2.7°C 23.5°F-4.7°C 86% 4.6 mph SW7.4 kmh SW 5.8 mph9.3 kmh 29.47 in998.0 mb - 0.00 in0.0 mm 0.11 in2.8 mm
09:00 PM 27.1°F-2.7°C 23.5°F-4.7°C 86% 4.6 mph SW7.4 kmh SW 4.6 mph7.4 kmh 29.47 in998.0 mb - 0.00 in0.0 mm 0.11 in2.8 mm
09:10 PM 27.1°F-2.7°C 22.9°F-5.1°C 84% 3.5 mph SW5.6 kmh SW 4.6 mph7.4 kmh 29.46 in997.6 mb - 0.00 in0.0 mm 0.11 in2.8 mm
09:15 PM 27.0°F-2.8°C 22.8°F-5.1°C 84% 3.5 mph SW5.6 kmh SW 3.5 mph5.6 kmh 29.45 in997.3 mb - 0.00 in0.0 mm 0.11 in2.8 mm
09:20 PM 27.0°F-2.8°C 22.8°F-5.1°C 84% 3.5 mph SW5.6 kmh SW 3.5 mph5.6 kmh 29.45 in997.3 mb - 0.00 in0.0 mm 0.11 in2.8 mm
09:25 PM 27.0°F-2.8°C 22.8°F-5.1°C 84% 3.5 mph SSW5.6 kmh SSW 3.5 mph5.6 kmh 29.45 in997.3 mb - 0.00 in0.0 mm 0.11 in2.8 mm
09:30 PM 26.8°F-2.9°C 22.3°F-5.4°C 83% 3.5 mph SW5.6 kmh SW 3.5 mph5.6 kmh 29.44 in997.0 mb - 0.00 in0.0 mm 0.11 in2.8 mm
09:35 PM 26.8°F-2.9°C 22.3°F-5.4°C 83% 3.5 mph SSW5.6 kmh SSW 3.5 mph5.6 kmh 29.43 in996.6 mb - 0.00 in0.0 mm 0.11 in2.8 mm
09:40 PM 26.8°F-2.9°C 22.3°F-5.4°C 83% 4.6 mph SW7.4 kmh SW 4.6 mph7.4 kmh 29.43 in996.6 mb - 0.00 in0.0 mm 0.11 in2.8 mm
09:45 PM 26.8°F-2.9°C 22.3°F-5.4°C 83% 4.6 mph SSW7.4 kmh SSW 4.6 mph7.4 kmh 29.43 in996.6 mb - 0.00 in0.0 mm 0.11 in2.8 mm
09:50 PM 26.6°F-3.0°C 22.1°F-5.5°C 83% 4.6 mph SSW7.4 kmh SSW 6.9 mph11.1 kmh 29.44 in997.0 mb - 0.00 in0.0 mm 0.11 in2.8 mm
09:55 PM 26.6°F-3.0°C 22.1°F-5.5°C 83% 4.6 mph SSW7.4 kmh SSW 5.8 mph9.3 kmh 29.44 in997.0 mb - 0.00 in0.0 mm 0.11 in2.8 mm
10:00 PM 26.6°F-3.0°C 22.1°F-5.5°C 83% 3.5 mph SSW5.6 kmh SSW 3.5 mph5.6 kmh 29.44 in997.0 mb - 0.00 in0.0 mm 0.11 in2.8 mm
10:10 PM 26.6°F-3.0°C 22.1°F-5.5°C 83% 3.5 mph SW5.6 kmh SW 3.5 mph5.6 kmh 29.43 in996.6 mb - 0.00 in0.0 mm 0.11 in2.8 mm
10:15 PM 26.6°F-3.0°C 22.1°F-5.5°C 83% 4.6 mph WSW7.4 kmh WSW 5.8 mph9.3 kmh 29.43 in996.6 mb - 0.00 in0.0 mm 0.11 in2.8 mm
10:20 PM 26.6°F-3.0°C 22.1°F-5.5°C 83% 3.5 mph SW5.6 kmh SW 3.5 mph5.6 kmh 29.43 in996.6 mb - 0.00 in0.0 mm 0.11 in2.8 mm
10:25 PM 26.6°F-3.0°C 21.8°F-5.7°C 82% 4.6 mph SSW7.4 kmh SSW 5.8 mph9.3 kmh 29.43 in996.6 mb - 0.00 in0.0 mm 0.11 in2.8 mm
10:30 PM 26.6°F-3.0°C 21.8°F-5.7°C 82% 4.6 mph SSW7.4 kmh SSW 5.8 mph9.3 kmh 29.42 in996.3 mb - 0.00 in0.0 mm 0.11 in2.8 mm
10:35 PM 26.5°F-3.1°C 21.8°F-5.7°C 82% 3.5 mph SSW5.6 kmh SSW 4.6 mph7.4 kmh 29.42 in996.3 mb - 0.00 in0.0 mm 0.11 in2.8 mm
10:40 PM 26.4°F-3.1°C 21.7°F-5.7°C 82% 3.5 mph WSW5.6 kmh WSW 3.5 mph5.6 kmh 29.42 in996.3 mb - 0.00 in0.0 mm 0.11 in2.8 mm
10:45 PM 26.6°F-3.0°C 22.1°F-5.5°C 83% 3.5 mph SW5.6 kmh SW 3.5 mph5.6 kmh 29.41 in995.9 mb - 0.00 in0.0 mm 0.11 in2.8 mm
10:50 PM 26.4°F-3.1°C 22.0°F-5.6°C 83% 3.5 mph SW5.6 kmh SW 4.6 mph7.4 kmh 29.41 in995.9 mb - 0.00 in0.0 mm 0.11 in2.8 mm
10:55 PM 26.6°F-3.0°C 22.4°F-5.3°C 84% 3.5 mph SW5.6 kmh SW 3.5 mph5.6 kmh 29.41 in995.9 mb - 0.00 in0.0 mm 0.11 in2.8 mm
11:00 PM 26.6°F-3.0°C 22.4°F-5.3°C 84% 3.5 mph SW5.6 kmh SW 3.5 mph5.6 kmh 29.41 in995.9 mb - 0.00 in0.0 mm 0.11 in2.8 mm
11:10 PM 26.8°F-2.9°C 22.6°F-5.2°C 84% 5.8 mph SW9.3 kmh SW 5.8 mph9.3 kmh 29.41 in995.9 mb - 0.00 in0.0 mm 0.11 in2.8 mm
11:15 PM 26.8°F-2.9°C 22.6°F-5.2°C 84% 4.6 mph SW7.4 kmh SW 6.9 mph11.1 kmh 29.42 in996.3 mb - 0.00 in0.0 mm 0.11 in2.8 mm
11:20 PM 27.0°F-2.8°C 22.8°F-5.1°C 84% 3.5 mph SW5.6 kmh SW 3.5 mph5.6 kmh 29.42 in996.3 mb - 0.00 in0.0 mm 0.11 in2.8 mm
11:25 PM 27.1°F-2.7°C 22.9°F-5.1°C 84% 3.5 mph SW5.6 kmh SW 6.9 mph11.1 kmh 29.42 in996.3 mb - 0.00 in0.0 mm 0.11 in2.8 mm
11:30 PM 27.1°F-2.7°C 23.2°F-4.9°C 85% 3.5 mph SW5.6 kmh SW 4.6 mph7.4 kmh 29.41 in995.9 mb - 0.00 in0.0 mm 0.11 in2.8 mm
11:35 PM 27.1°F-2.7°C 23.5°F-4.7°C 86% 3.5 mph SW5.6 kmh SW 4.6 mph7.4 kmh 29.41 in995.9 mb - 0.00 in0.0 mm 0.11 in2.8 mm
11:40 PM 27.1°F-2.7°C 23.5°F-4.7°C 86% 3.5 mph W5.6 kmh W 3.5 mph5.6 kmh 29.41 in995.9 mb - 0.00 in0.0 mm 0.11 in2.8 mm
11:45 PM 27.1°F-2.7°C 23.5°F-4.7°C 86% 3.5 mph WSW5.6 kmh WSW 5.8 mph9.3 kmh 29.41 in995.9 mb - 0.00 in0.0 mm 0.11 in2.8 mm
11:50 PM 27.1°F-2.7°C 23.5°F-4.7°C 86% 4.6 mph WSW7.4 kmh WSW 5.8 mph9.3 kmh 29.40 in995.6 mb - 0.00 in0.0 mm 0.11 in2.8 mm
11:55 PM 27.3°F-2.6°C 23.7°F-4.6°C 86% 4.6 mph SW7.4 kmh SW 4.6 mph7.4 kmh 29.40 in995.6 mb - 0.00 in0.0 mm 0.11 in2.8 mm